Time;durP1;ratioP1;P1;durP2;ratioP2;P2;SDS_P1;SDS_P2;PMS_P1;PMS_P2;Temp;Humidity;BMP_temperature;BMP_pressure;BME280_temperature;BME280_humidity;BME280_pressure;Samples;Min_cycle;Max_cycle;Signal;HPM_P1;HPM_P2
2021/08/25 00:00:52;;;;;;;3.33;2.30;;;;;;;11.94;100.00;101967.53;4982107;28;20241;-75
2021/08/25 00:03:18;;;;;;;3.77;2.70;;;;;;;11.93;100.00;101965.06;4981799;28;20277;-75
2021/08/25 00:05:46;;;;;;;3.47;2.60;;;;;;;11.88;100.00;101961.44;4996564;28;20245;-75
2021/08/25 00:08:14;;;;;;;3.13;2.33;;;;;;;11.85;100.00;101964.63;4962952;28;20244;-74
2021/08/25 00:10:40;;;;;;;2.83;2.40;;;;;;;11.72;100.00;101956.81;4977575;28;20357;-75
2021/08/25 00:13:07;;;;;;;3.53;2.30;;;;;;;11.69;100.00;101958.13;4973402;28;20624;-75
2021/08/25 00:15:44;;;;;;;3.30;2.60;;;;;;;11.56;100.00;101952.19;4961146;28;20267;-75
2021/08/25 00:18:14;;;;;;;4.07;2.60;;;;;;;11.59;100.00;101947.09;4944147;28;20210;-74
2021/08/25 00:20:42;;;;;;;5.03;2.50;;;;;;;11.66;100.00;101945.00;4941845;28;20281;-75
2021/08/25 00:23:09;;;;;;;2.87;2.40;;;;;;;11.54;100.00;101946.19;5003763;28;20198;-74
2021/08/25 00:25:40;;;;;;;3.80;2.80;;;;;;;11.63;100.00;101944.72;4973714;28;20226;-74
2021/08/25 00:28:08;;;;;;;3.10;2.50;;;;;;;11.64;100.00;101943.63;4976511;28;20204;-74
2021/08/25 00:30:36;;;;;;;4.60;2.73;;;;;;;11.71;100.00;101955.16;4959670;28;20213;-74
2021/08/25 00:33:01;;;;;;;2.60;2.40;;;;;;;11.64;100.00;101949.06;4976811;28;20219;-75
2021/08/25 00:35:29;;;;;;;2.53;2.30;;;;;;;11.57;100.00;101935.63;4991985;28;20236;-74
2021/08/25 00:37:55;;;;;;;3.50;2.30;;;;;;;11.54;100.00;101938.03;4956366;28;20210;-74
2021/08/25 00:40:23;;;;;;;3.43;2.67;;;;;;;11.41;100.00;101937.47;4972102;28;20257;-74
2021/08/25 00:42:48;;;;;;;2.50;2.20;;;;;;;11.33;100.00;101935.97;4967772;28;20277;-74
2021/08/25 00:45:14;;;;;;;3.33;2.40;;;;;;;11.34;100.00;101924.03;4975397;28;20206;-74
2021/08/25 00:47:45;;;;;;;3.00;2.10;;;;;;;11.15;100.00;101917.19;4992147;28;20241;-74
2021/08/25 00:50:10;;;;;;;4.47;2.67;;;;;;;11.27;100.00;101920.66;4974314;28;20576;-73
2021/08/25 00:52:36;;;;;;;2.73;2.17;;;;;;;11.18;100.00;101913.97;4975839;28;20186;-74
2021/08/25 00:55:05;;;;;;;2.47;2.20;;;;;;;11.32;100.00;101911.78;4991840;28;20228;-74
2021/08/25 00:57:30;;;;;;;3.57;2.13;;;;;;;11.24;100.00;101902.09;4991525;28;20218;-75
2021/08/25 00:59:59;;;;;;;2.67;2.30;;;;;;;11.25;100.00;101902.94;4959406;28;20190;-75
2021/08/25 01:02:33;;;;;;;3.50;2.47;;;;;;;11.24;100.00;101904.81;4975154;28;20209;-74
2021/08/25 01:05:02;;;;;;;3.97;2.47;;;;;;;11.19;100.00;101906.66;4959921;28;20691;-75
2021/08/25 01:07:30;;;;;;;3.30;2.37;;;;;;;11.20;100.00;101903.66;4991446;28;20213;-75
2021/08/25 01:09:58;;;;;;;2.73;2.30;;;;;;;11.25;100.00;101901.03;4944905;28;20178;-75
2021/08/25 01:12:29;;;;;;;3.50;2.57;;;;;;;11.17;100.00;101901.44;4955472;28;20217;-75
2021/08/25 01:14:59;;;;;;;4.87;2.70;;;;;;;11.13;100.00;101903.00;4972106;28;20206;-75
2021/08/25 01:17:25;;;;;;;3.43;2.30;;;;;;;11.09;100.00;101900.19;4975131;28;20597;-74
2021/08/25 01:20:10;;;;;;;2.87;2.20;;;;;;;11.02;100.00;101891.34;4974763;28;20290;-75
2021/08/25 01:22:39;;;;;;;2.97;2.37;;;;;;;11.20;100.00;101892.78;4975301;28;20213;-75
2021/08/25 01:25:09;;;;;;;5.07;2.50;;;;;;;11.37;100.00;101887.34;4959593;28;20561;-75
2021/08/25 01:27:38;;;;;;;3.00;2.40;;;;;;;11.32;100.00;101876.41;4955531;28;20265;-75
2021/08/25 01:30:04;;;;;;;3.17;2.70;;;;;;;11.33;100.00;101865.25;4942942;28;20850;-75
2021/08/25 01:32:29;;;;;;;2.90;2.60;;;;;;;11.19;100.00;101866.66;4975058;28;20675;-75
2021/08/25 01:34:58;;;;;;;3.17;2.43;;;;;;;11.09;100.00;101867.56;4958761;28;20213;-75
2021/08/25 01:37:24;;;;;;;2.33;2.13;;;;;;;11.05;100.00;101866.41;4989933;28;20300;-75
2021/08/25 01:39:51;;;;;;;4.10;2.47;;;;;;;11.20;100.00;101871.03;4954931;28;20195;-75
2021/08/25 01:42:21;;;;;;;3.53;2.30;;;;;;;11.21;100.00;101864.53;4972595;28;20234;-75
2021/08/25 01:44:49;;;;;;;3.17;2.30;;;;;;;11.20;100.00;101865.56;4956106;28;20206;-74
2021/08/25 01:47:20;;;;;;;2.43;2.20;;;;;;;11.25;100.00;101864.84;4989357;28;20225;-75
2021/08/25 01:49:48;;;;;;;4.07;2.40;;;;;;;11.15;100.00;101867.38;4955355;28;20178;-75
2021/08/25 01:52:17;;;;;;;2.50;2.30;;;;;;;11.13;100.00;101854.06;4955300;28;20222;-75
2021/08/25 01:54:49;;;;;;;6.20;2.20;;;;;;;11.19;100.00;101869.38;4939146;28;20217;-75
2021/08/25 01:57:15;;;;;;;2.33;2.10;;;;;;;11.09;100.00;101853.97;4971142;28;20222;-74
2021/08/25 01:59:41;;;;;;;2.83;2.33;;;;;;;10.99;100.00;101854.63;4974194;28;20190;-75
2021/08/25 02:02:14;;;;;;;3.10;2.20;;;;;;;10.87;100.00;101864.72;4958111;28;20336;-74
2021/08/25 02:04:42;;;;;;;3.93;2.30;;;;;;;10.78;100.00;101865.38;4974679;28;20210;-75
2021/08/25 02:07:12;;;;;;;6.80;2.20;;;;;;;10.82;100.00;101855.66;4973853;28;20608;-75
2021/08/25 02:09:40;;;;;;;2.70;2.50;;;;;;;10.73;100.00;101861.72;4956522;28;20191;-73
2021/08/25 02:12:06;;;;;;;2.80;2.40;;;;;;;10.64;100.00;101861.31;4942412;28;20229;-74
2021/08/25 02:14:31;;;;;;;3.07;2.27;;;;;;;10.66;100.00;101850.19;4954922;28;20216;-75
2021/08/25 02:16:58;;;;;;;3.40;2.20;;;;;;;10.63;100.00;101851.50;4938861;28;20230;-75
2021/08/25 02:19:23;;;;;;;2.33;2.10;;;;;;;10.57;100.00;101846.22;4966532;28;20687;-74
2021/08/25 02:21:51;;;;;;;3.17;2.40;;;;;;;10.75;100.00;101838.69;4989524;28;20695;-74
2021/08/25 02:24:19;;;;;;;2.97;2.33;;;;;;;10.89;100.00;101824.53;4990324;28;20336;-75
2021/08/25 02:26:44;;;;;;;3.37;2.27;;;;;;;10.82;100.00;101829.31;4958156;28;20680;-75
2021/08/25 02:29:15;;;;;;;3.03;1.97;;;;;;;10.84;100.00;101827.19;4976853;28;20396;-75
2021/08/25 02:31:45;;;;;;;4.13;2.23;;;;;;;10.76;100.00;101824.84;4981061;28;20249;-75
2021/08/25 02:34:11;;;;;;;4.23;2.50;;;;;;;10.80;100.00;101817.03;4961194;28;20206;-74
2021/08/25 02:36:39;;;;;;;3.40;2.40;;;;;;;10.92;100.00;101813.16;4959543;28;20593;-75
2021/08/25 02:39:07;;;;;;;3.23;2.00;;;;;;;10.94;100.00;101807.50;4965229;28;20567;-75
2021/08/25 02:41:35;;;;;;;2.47;2.10;;;;;;;10.81;100.00;101800.47;4964134;28;20252;-75
2021/08/25 02:44:00;;;;;;;2.93;2.40;;;;;;;10.82;100.00;101804.00;4961385;28;20248;-75
2021/08/25 02:46:26;;;;;;;4.17;2.23;;;;;;;10.94;100.00;101792.00;4972422;28;20605;-75
2021/08/25 02:48:51;;;;;;;3.07;2.30;;;;;;;11.14;100.00;101790.44;4980646;28;20181;-75
2021/08/25 02:51:17;;;;;;;3.53;2.30;;;;;;;11.02;100.00;101790.75;4980162;28;20221;-75
2021/08/25 02:53:44;;;;;;;2.53;2.20;;;;;;;11.16;100.00;101791.00;4980653;28;20220;-75
2021/08/25 02:56:10;;;;;;;3.80;2.20;;;;;;;11.02;100.00;101790.75;4960026;28;20280;-76
2021/08/25 02:58:36;;;;;;;5.23;2.30;;;;;;;10.89;100.00;101791.09;4978072;28;20232;-74
2021/08/25 03:01:02;;;;;;;2.60;2.17;;;;;;;10.88;100.00;101787.56;4963988;28;20290;-75
2021/08/25 03:03:27;;;;;;;4.20;2.73;;;;;;;10.77;100.00;101782.19;4964402;28;20240;-74
2021/08/25 03:05:55;;;;;;;3.00;2.00;;;;;;;10.81;100.00;101784.16;4979885;28;20229;-74
2021/08/25 03:08:21;;;;;;;3.17;2.23;;;;;;;10.63;100.00;101783.56;4980958;28;20647;-75
2021/08/25 03:10:48;;;;;;;2.60;2.03;;;;;;;10.60;100.00;101783.22;4960679;28;20225;-74
2021/08/25 03:13:16;;;;;;;3.03;2.33;;;;;;;10.57;100.00;101770.97;4977269;28;20605;-74
2021/08/25 03:15:45;;;;;;;2.87;2.40;;;;;;;10.44;100.00;101768.56;4975609;28;21914;-74
2021/08/25 03:18:15;;;;;;;2.30;2.10;;;;;;;10.44;100.00;101770.47;4979753;28;20216;-74
2021/08/25 03:20:43;;;;;;;3.13;2.20;;;;;;;10.41;100.00;101770.94;4996746;28;20356;-74
2021/08/25 03:23:11;;;;;;;2.03;1.83;;;;;;;10.33;100.00;101765.06;4964474;28;20204;-74
2021/08/25 03:25:39;;;;;;;3.67;2.30;;;;;;;10.40;100.00;101764.69;4980059;28;20225;-75
2021/08/25 03:28:04;;;;;;;2.17;1.90;;;;;;;10.33;100.00;101757.78;4964507;28;20186;-74
2021/08/25 03:30:35;;;;;;;2.20;2.00;;;;;;;10.15;100.00;101746.28;4963184;28;20223;-74
2021/08/25 03:33:08;;;;;;;2.87;2.10;;;;;;;10.20;100.00;101749.94;4964698;28;20210;-74
2021/08/25 03:35:34;;;;;;;2.60;2.20;;;;;;;10.26;100.00;101748.13;4995882;28;20665;-74
2021/08/25 03:37:59;;;;;;;2.70;2.07;;;;;;;10.22;100.00;101741.50;4979787;28;20224;-75
2021/08/25 03:40:25;;;;;;;2.40;2.00;;;;;;;10.33;100.00;101740.63;4994271;28;20217;-74
2021/08/25 03:42:50;;;;;;;4.37;2.23;;;;;;;10.24;100.00;101737.50;4977532;28;20181;-74
2021/08/25 03:45:18;;;;;;;3.67;1.93;;;;;;;10.35;100.00;101744.78;4960141;28;20209;-74
2021/08/25 03:47:46;;;;;;;2.40;2.00;;;;;;;10.38;100.00;101739.69;4961186;28;20252;-74
2021/08/25 03:50:11;;;;;;;3.23;2.10;;;;;;;10.35;100.00;101733.06;4957290;28;20245;-74
2021/08/25 03:52:39;;;;;;;3.60;2.10;;;;;;;10.36;100.00;101734.72;4942057;28;20174;-75
2021/08/25 03:55:10;;;;;;;3.97;2.03;;;;;;;10.25;100.00;101741.03;4942371;28;20194;-74
2021/08/25 03:57:35;;;;;;;2.40;2.20;;;;;;;10.20;100.00;101732.78;4992006;28;20642;-75
2021/08/25 04:00:01;;;;;;;2.43;2.20;;;;;;;10.29;100.00;101736.75;4993169;28;20276;-74
2021/08/25 04:02:26;;;;;;;3.07;2.03;;;;;;;10.38;100.00;101731.53;4992753;28;20241;-75
2021/08/25 04:04:52;;;;;;;4.67;2.20;;;;;;;10.48;100.00;101723.53;4960204;28;20202;-75
2021/08/25 04:07:22;;;;;;;2.23;1.87;;;;;;;10.48;100.00;101731.69;4961173;28;20218;-75
2021/08/25 04:09:49;;;;;;;2.97;2.30;;;;;;;10.60;100.00;101727.00;4977017;28;20221;-75
2021/08/25 04:12:18;;;;;;;4.07;2.27;;;;;;;10.71;100.00;101712.50;4977440;28;20229;-75
2021/08/25 04:14:44;;;;;;;4.83;1.93;;;;;;;10.80;100.00;101721.91;4961830;28;20217;-75
2021/08/25 04:17:10;;;;;;;2.17;1.80;;;;;;;10.81;100.00;101727.09;4960860;28;20225;-74
2021/08/25 04:19:35;;;;;;;3.70;2.07;;;;;;;10.78;100.00;101724.84;4977184;28;20212;-74
2021/08/25 04:22:03;;;;;;;2.93;2.00;;;;;;;10.72;100.00;101725.03;4941479;28;20285;-74
2021/08/25 04:24:32;;;;;;;2.50;2.10;;;;;;;10.69;100.00;101727.44;4944642;28;20244;-74
2021/08/25 04:26:57;;;;;;;2.80;2.17;;;;;;;10.71;100.00;101728.81;4973326;28;20309;-75
2021/08/25 04:29:25;;;;;;;3.73;2.30;;;;;;;10.58;100.00;101728.31;4957743;28;20414;-74
2021/08/25 04:31:56;;;;;;;2.23;2.00;;;;;;;10.72;100.00;101729.66;5003614;28;20221;-74
2021/08/25 04:34:23;;;;;;;2.20;2.00;;;;;;;10.59;100.00;101727.28;4957992;28;20202;-75
2021/08/25 04:36:51;;;;;;;2.40;2.07;;;;;;;10.61;100.00;101717.78;4967556;28;20604;-73
2021/08/25 04:39:19;;;;;;;2.40;2.00;;;;;;;10.77;100.00;101711.53;4927103;28;20661;-74
2021/08/25 04:41:45;;;;;;;2.97;2.27;;;;;;;10.81;100.00;101712.69;4957801;28;20229;-74
2021/08/25 04:44:15;;;;;;;2.67;2.13;;;;;;;10.97;100.00;101711.84;4977021;28;20588;-73
2021/08/25 04:46:43;;;;;;;2.30;2.00;;;;;;;10.92;100.00;101709.06;4976057;28;20252;-74
2021/08/25 04:49:09;;;;;;;2.67;2.30;;;;;;;10.92;100.00;101706.34;4976717;28;20269;-74
2021/08/25 04:51:35;;;;;;;4.30;2.13;;;;;;;10.98;100.00;101703.44;4991453;28;20643;-74
2021/08/25 04:54:00;;;;;;;5.43;2.10;;;;;;;11.04;100.00;101707.06;4992666;28;20671;-74
2021/08/25 04:56:26;;;;;;;3.20;2.20;;;;;;;11.15;100.00;101698.78;4975555;28;20756;-74
2021/08/25 04:58:51;;;;;;;2.73;2.30;;;;;;;11.27;100.00;101685.91;4975418;28;20206;-74
2021/08/25 05:01:19;;;;;;;2.97;2.40;;;;;;;11.35;100.00;101682.75;4956037;28;20716;-73
2021/08/25 05:03:44;;;;;;;3.33;1.97;;;;;;;11.52;100.00;101686.25;4956609;28;20215;-73
2021/08/25 05:06:10;;;;;;;5.43;2.13;;;;;;;11.51;100.00;101682.72;4943697;28;20221;-73
2021/08/25 05:08:37;;;;;;;4.07;2.20;;;;;;;11.67;100.00;101684.56;4959687;28;20201;-73
2021/08/25 05:11:06;;;;;;;3.27;2.00;;;;;;;11.81;100.00;101677.63;4959311;28;20229;-73
2021/08/25 05:13:35;;;;;;;2.93;2.43;;;;;;;11.87;100.00;101671.16;4959477;28;20196;-73
2021/08/25 05:16:13;;;;;;;2.73;2.20;;;;;;;11.94;100.00;101668.00;4959954;28;20229;-74
2021/08/25 05:18:41;;;;;;;4.03;2.23;;;;;;;11.82;100.00;101665.69;4974886;28;20209;-74
2021/08/25 05:21:07;;;;;;;2.93;2.27;;;;;;;11.77;100.00;101655.56;4975099;28;20288;-74
2021/08/25 05:23:36;;;;;;;4.53;2.40;;;;;;;11.81;100.00;101655.88;4972006;28;20193;-73
2021/08/25 05:26:02;;;;;;;2.57;2.10;;;;;;;11.86;100.00;101653.22;4955874;28;20226;-74
2021/08/25 05:28:30;;;;;;;2.97;1.97;;;;;;;11.97;100.00;101653.84;4959113;28;20561;-74
2021/08/25 05:30:58;;;;;;;4.60;2.20;;;;;;;12.13;100.00;101652.94;4958670;28;20245;-74
2021/08/25 05:33:24;;;;;;;2.63;2.30;;;;;;;12.15;100.00;101650.78;4972241;28;20186;-74
2021/08/25 05:35:52;;;;;;;3.83;2.20;;;;;;;12.23;100.00;101644.03;4955123;28;20628;-74
2021/08/25 05:38:22;;;;;;;3.63;2.10;;;;;;;12.03;100.00;101632.94;4969643;28;20226;-74
2021/08/25 05:40:48;;;;;;;3.13;2.03;;;;;;;12.18;100.00;101638.53;4939658;28;20222;-74
2021/08/25 05:43:17;;;;;;;3.37;2.37;;;;;;;12.41;100.00;101636.31;4950024;28;20190;-74
2021/08/25 05:45:43;;;;;;;3.87;2.43;;;;;;;12.41;100.00;101652.66;4955680;28;20586;-74
2021/08/25 05:48:11;;;;;;;4.73;3.03;;;;;;;12.27;100.00;101648.72;4969965;28;20220;-74
2021/08/25 05:50:36;;;;;;;2.50;2.20;;;;;;;12.64;100.00;101644.13;4974520;28;20241;-74
2021/08/25 05:53:04;;;;;;;2.90;2.23;;;;;;;12.70;100.00;101644.69;4990795;28;20217;-74
2021/08/25 05:55:30;;;;;;;2.70;2.27;;;;;;;12.86;100.00;101641.03;4973988;28;20256;-74
2021/08/25 05:57:58;;;;;;;4.43;2.27;;;;;;;12.82;100.00;101639.94;4974514;28;20241;-74
2021/08/25 06:00:24;;;;;;;5.13;2.47;;;;;;;13.01;100.00;101648.50;4973390;28;20194;-74
2021/08/25 06:02:54;;;;;;;3.33;2.20;;;;;;;13.18;100.00;101639.84;4966713;28;20290;-73
2021/08/25 06:05:20;;;;;;;4.03;2.67;;;;;;;13.05;100.00;101634.06;4958331;28;20205;-75
2021/08/25 06:07:53;;;;;;;3.83;2.60;;;;;;;13.31;100.00;101633.09;4955556;28;20186;-74
2021/08/25 06:10:19;;;;;;;3.67;2.83;;;;;;;13.35;100.00;101629.59;4959284;28;20679;-74
2021/08/25 06:12:49;;;;;;;6.73;2.80;;;;;;;13.38;100.00;101633.69;4974708;28;20586;-74
2021/08/25 06:15:14;;;;;;;4.20;2.90;;;;;;;13.62;100.00;101638.41;4958258;28;20264;-73
2021/08/25 06:17:42;;;;;;;4.97;2.63;;;;;;;13.55;100.00;101630.47;4974206;28;20198;-74
2021/08/25 06:20:08;;;;;;;4.20;2.80;;;;;;;13.62;100.00;101633.75;4953893;28;20253;-74
2021/08/25 06:22:34;;;;;;;3.63;2.70;;;;;;;13.78;100.00;101635.47;4972170;28;20236;-74
2021/08/25 06:24:59;;;;;;;3.93;3.00;;;;;;;13.67;100.00;101638.44;4974406;28;20217;-75
2021/08/25 06:27:28;;;;;;;6.83;3.07;;;;;;;13.67;100.00;101638.44;4974237;28;20206;-74
2021/08/25 06:29:56;;;;;;;4.23;3.20;;;;;;;13.93;100.00;101638.22;4990684;28;20189;-73
2021/08/25 06:32:22;;;;;;;3.40;3.10;;;;;;;13.89;100.00;101637.13;4973983;28;20263;-74
2021/08/25 06:34:48;;;;;;;3.67;2.83;;;;;;;13.90;100.00;101638.78;4973393;28;20337;-74
2021/08/25 06:37:13;;;;;;;4.83;3.13;;;;;;;13.98;100.00;101630.84;4991003;28;20287;-73
2021/08/25 06:39:39;;;;;;;4.60;3.13;;;;;;;13.94;100.00;101639.88;4973892;28;20189;-75
2021/08/25 06:42:07;;;;;;;6.90;3.53;;;;;;;14.02;100.00;101639.38;4973998;28;20229;-74
2021/08/25 06:44:37;;;;;;;4.43;3.67;;;;;;;13.98;100.00;101630.03;4974692;28;20216;-73
2021/08/25 06:47:03;;;;;;;6.13;3.43;;;;;;;13.96;100.00;101627.56;4989829;28;20236;-74
2021/08/25 06:49:29;;;;;;;6.40;3.30;;;;;;;14.23;100.00;101632.81;4970741;28;20182;-75
2021/08/25 06:51:59;;;;;;;4.67;3.80;;;;;;;14.26;100.00;101633.91;4970736;28;20226;-75
2021/08/25 06:54:27;;;;;;;5.90;3.90;;;;;;;14.61;100.00;101624.91;4942274;28;20284;-74
2021/08/25 06:56:55;;;;;;;5.07;4.00;;;;;;;14.74;100.00;101614.22;4957241;28;20233;-74
2021/08/25 06:59:23;;;;;;;5.03;4.30;;;;;;;14.88;100.00;101616.09;4954529;28;20692;-74
2021/08/25 07:01:50;;;;;;;5.73;4.50;;;;;;;15.18;100.00;101616.03;4971390;28;20694;-74
2021/08/25 07:04:18;;;;;;;5.23;4.60;;;;;;;15.38;100.00;101616.78;4958252;28;20213;-72
2021/08/25 07:06:46;;;;;;;8.60;6.60;;;;;;;15.45;100.00;101607.16;4973864;28;20280;-74
2021/08/25 07:09:12;;;;;;;8.95;7.47;;;;;;;15.68;100.00;101605.72;4973772;28;20189;-74
2021/08/25 07:11:38;;;;;;;10.68;8.35;;;;;;;15.94;100.00;101611.56;4973657;28;20232;-74
2021/08/25 07:14:03;;;;;;;12.57;10.73;;;;;;;16.17;100.00;101608.09;4973815;28;20192;-74
2021/08/25 07:16:34;;;;;;;11.82;8.93;;;;;;;16.37;100.00;101594.25;4975014;28;20225;-74
2021/08/25 07:19:02;;;;;;;13.57;9.20;;;;;;;16.57;100.00;101590.25;4992993;28;20213;-74
2021/08/25 07:21:30;;;;;;;11.27;8.95;;;;;;;16.66;100.00;101588.50;4991213;28;20237;-75
2021/08/25 07:23:55;;;;;;;11.00;7.45;;;;;;;16.91;100.00;101585.50;4959009;28;20195;-74
2021/08/25 07:26:21;;;;;;;9.25;6.72;;;;;;;17.25;100.00;101567.84;4960085;28;20251;-75
2021/08/25 07:28:49;;;;;;;9.20;4.63;;;;;;;17.25;100.00;101565.09;4961836;28;20170;-74
2021/08/25 07:31:16;;;;;;;9.27;4.78;;;;;;;17.32;100.00;101564.72;4961728;28;20209;-74
2021/08/25 07:33:42;;;;;;;8.25;4.10;;;;;;;17.77;100.00;101563.00;4993565;28;20681;-74
2021/08/25 07:36:12;;;;;;;5.35;3.65;;;;;;;18.00;100.00;101556.56;4960016;28;20263;-74
2021/08/25 07:38:38;;;;;;;6.03;3.60;;;;;;;18.12;100.00;101555.84;4957630;28;20707;-74
2021/08/25 07:41:03;;;;;;;5.82;3.75;;;;;;;18.12;100.00;101551.47;4957798;28;20230;-74
2021/08/25 07:43:31;;;;;;;6.60;3.72;;;;;;;18.26;100.00;101551.22;4960811;28;20268;-77
2021/08/25 07:45:57;;;;;;;6.47;4.00;;;;;;;18.45;100.00;101542.91;4944624;28;20756;-74
2021/08/25 07:48:22;;;;;;;7.28;4.45;;;;;;;18.41;100.00;101548.22;4976600;28;20244;-73
2021/08/25 07:50:49;;;;;;;7.43;3.70;;;;;;;18.32;100.00;101539.00;4972363;28;20222;-74
2021/08/25 07:53:19;;;;;;;5.30;3.67;;;;;;;18.23;100.00;101540.81;4993317;28;20185;-74
2021/08/25 07:55:52;;;;;;;5.57;3.80;;;;;;;18.05;100.00;101537.25;4943400;28;20292;-72
2021/08/25 07:58:18;;;;;;;8.23;3.90;;;;;;;18.33;100.00;101528.81;4957167;28;20236;-74
2021/08/25 08:00:46;;;;;;;5.88;3.90;;;;;;;18.06;100.00;101527.88;4990875;28;20225;-74
2021/08/25 08:03:14;;;;;;;6.25;3.65;;;;;;;18.27;100.00;101528.09;4961718;28;20264;-74
2021/08/25 08:05:44;;;;;;;7.13;3.97;;;;;;;18.15;100.00;101535.19;4976538;28;20224;-74
2021/08/25 08:08:09;;;;;;;6.68;3.63;;;;;;;18.37;100.00;101522.41;4960450;28;20186;-75
2021/08/25 08:10:37;;;;;;;6.45;3.50;;;;;;;18.45;100.00;101518.97;4994019;28;20221;-75
2021/08/25 08:13:05;;;;;;;7.78;3.80;;;;;;;18.45;100.00;101520.91;4957116;28;20201;-74
2021/08/25 08:15:35;;;;;;;5.40;3.70;;;;;;;18.46;100.00;101519.78;4972562;28;20226;-73
2021/08/25 08:18:08;;;;;;;5.70;3.90;;;;;;;18.34;100.00;101514.75;4960149;28;20225;-73
2021/08/25 08:20:37;;;;;;;5.97;4.10;;;;;;;18.50;100.00;101513.38;4976964;28;20217;-74
2021/08/25 08:23:05;;;;;;;5.90;4.43;;;;;;;18.29;100.00;101512.09;4976876;28;20186;-74
2021/08/25 08:25:30;;;;;;;5.40;3.95;;;;;;;18.49;100.00;101511.72;4966263;28;20638;-74
2021/08/25 08:27:58;;;;;;;6.80;3.90;;;;;;;18.67;100.00;101508.09;4957449;28;20183;-70
2021/08/25 08:30:28;;;;;;;5.53;4.25;;;;;;;18.92;100.00;101506.47;4980816;28;20222;-74
2021/08/25 08:32:54;;;;;;;5.32;3.47;;;;;;;18.76;100.00;101503.50;4957292;28;20198;-74
2021/08/25 08:35:22;;;;;;;6.88;3.15;;;;;;;18.97;100.00;101497.31;4967562;28;20217;-74
2021/08/25 08:37:49;;;;;;;5.72;3.75;;;;;;;19.23;100.00;101499.25;4973374;28;20291;-74
2021/08/25 08:40:15;;;;;;;5.07;3.60;;;;;;;19.41;100.00;101498.25;5002344;28;20185;-74
2021/08/25 08:42:43;;;;;;;5.93;4.25;;;;;;;19.88;100.00;101493.84;4959767;28;20581;-75
2021/08/25 08:45:10;;;;;;;5.13;3.38;;;;;;;19.50;100.00;101486.19;4944192;28;20229;-72
2021/08/25 08:47:36;;;;;;;3.88;2.90;;;;;;;19.30;100.00;101492.19;4976791;28;20333;-74
2021/08/25 08:50:02;;;;;;;4.10;2.85;;;;;;;19.56;100.00;101496.00;4968296;28;20284;-74
2021/08/25 08:52:28;;;;;;;5.07;2.92;;;;;;;19.42;100.00;101484.19;4985303;28;20221;-75
2021/08/25 08:54:57;;;;;;;5.97;3.60;;;;;;;19.25;100.00;101480.44;4977888;28;20248;-74
2021/08/25 08:57:28;;;;;;;5.18;3.20;;;;;;;19.28;100.00;101488.09;4991845;28;20230;-74
2021/08/25 09:00:00;;;;;;;4.75;3.38;;;;;;;19.30;100.00;101491.34;4958898;28;20184;-75
2021/08/25 09:02:45;;;;;;;4.00;3.35;;;;;;;19.35;100.00;101486.53;4958120;28;20213;-74
2021/08/25 09:05:23;;;;;;;5.63;3.22;;;;;;;19.11;100.00;101487.91;4960471;28;20229;-75
2021/08/25 09:07:54;;;;;;;5.00;3.58;;;;;;;19.08;100.00;101483.03;4993009;28;20196;-78
2021/08/25 09:10:23;;;;;;;6.38;3.40;;;;;;;18.86;100.00;101478.50;4971999;28;20184;-73
2021/08/25 09:12:52;;;;;;;5.60;3.80;;;;;;;18.88;100.00;101477.91;4943542;28;20165;-74
2021/08/25 09:15:19;;;;;;;4.00;3.28;;;;;;;19.05;100.00;101467.13;4956781;28;20579;-74
2021/08/25 09:17:45;;;;;;;6.00;3.40;;;;;;;19.29;100.00;101474.00;4967609;28;20221;-76
2021/08/25 09:20:11;;;;;;;4.05;3.13;;;;;;;19.54;100.00;101476.19;4982201;28;20204;-77
2021/08/25 09:22:41;;;;;;;4.55;2.72;;;;;;;20.10;100.00;101474.53;4957133;28;20285;-74
2021/08/25 09:25:09;;;;;;;4.68;2.83;;;;;;;20.17;100.00;101459.16;4975446;28;20628;-77
2021/08/25 09:27:35;;;;;;;5.32;2.58;;;;;;;19.82;100.00;101466.72;4975918;28;20189;-76
2021/08/25 09:30:05;;;;;;;3.63;2.38;;;;;;;19.46;100.00;101462.31;4974084;28;20567;-76
2021/08/25 09:32:37;;;;;;;3.30;2.22;;;;;;;19.29;100.00;101473.19;4991249;28;20214;-75
2021/08/25 09:35:05;;;;;;;3.17;2.42;;;;;;;19.46;100.00;101462.31;4955490;28;20631;-74
2021/08/25 09:37:36;;;;;;;3.10;2.10;;;;;;;19.40;100.00;101450.59;4974594;28;20221;-74
2021/08/25 09:40:04;;;;;;;4.00;2.20;;;;;;;19.64;99.37;101453.09;4973713;28;20181;-73
2021/08/25 09:42:43;;;;;;;4.75;2.40;;;;;;;20.07;99.17;101437.38;5004357;28;20591;-75
2021/08/25 09:45:09;;;;;;;5.80;2.30;;;;;;;20.07;97.72;101439.28;4971882;28;20749;-73
2021/08/25 09:48:06;;;;;;;5.13;2.00;;;;;;;20.45;95.18;101430.25;4989084;28;20186;-75
2021/08/25 09:50:32;;;;;;;2.90;1.92;;;;;;;20.55;89.07;101432.75;4969787;28;20231;-72
2021/08/25 09:53:04;;;;;;;2.60;1.60;;;;;;;20.92;89.77;101419.22;4990200;28;20685;-75
2021/08/25 09:55:33;;;;;;;3.92;2.90;;;;;;;20.42;84.73;101416.25;4971067;28;20252;-75
2021/08/25 09:58:03;;;;;;;3.13;1.80;;;;;;;20.25;89.01;101399.63;4986730;28;20309;-75
2021/08/25 10:00:29;;;;;;;2.03;1.40;;;;;;;20.44;89.05;101396.31;4980278;28;20241;-75
2021/08/25 10:02:55;;;;;;;3.35;1.70;;;;;;;20.67;87.83;101389.59;4990808;28;20195;-74
2021/08/25 10:05:25;;;;;;;3.05;1.40;;;;;;;21.16;84.54;101389.19;4957582;28;20217;-74
2021/08/25 10:07:53;;;;;;;2.22;1.52;;;;;;;21.15;83.29;101393.09;4968157;28;20699;-75
2021/08/25 10:10:21;;;;;;;3.58;1.40;;;;;;;21.25;79.32;101383.34;4971013;28;20224;-75
2021/08/25 10:12:53;;;;;;;3.03;1.50;;;;;;;20.99;80.77;101383.66;4988742;28;20186;-74
2021/08/25 10:15:33;;;;;;;2.70;1.33;;;;;;;21.03;81.52;101393.72;4968787;28;20206;-75
2021/08/25 10:18:04;;;;;;;2.10;1.30;;;;;;;21.47;78.24;101374.09;4986471;28;20232;-75
2021/08/25 10:20:34;;;;;;;3.60;1.50;;;;;;;21.34;78.44;101370.34;4974793;28;20236;-74
2021/08/25 10:23:02;;;;;;;4.53;1.90;;;;;;;21.63;77.99;101373.28;4975269;28;20182;-75
2021/08/25 10:25:30;;;;;;;1.83;1.30;;;;;;;21.38;79.50;101365.78;4987294;28;20232;-73
2021/08/25 10:28:02;;;;;;;2.30;1.27;;;;;;;21.42;79.31;101352.16;4990427;28;20245;-74
2021/08/25 10:30:31;;;;;;;3.58;1.40;;;;;;;21.57;76.85;101351.63;4989971;28;20263;-75
2021/08/25 10:32:57;;;;;;;3.35;1.30;;;;;;;21.13;81.47;101345.63;4986270;28;20242;-74
2021/08/25 10:35:32;;;;;;;1.77;1.20;;;;;;;20.93;82.81;101343.47;4989810;28;20236;-75
2021/08/25 10:38:33;;;;;;;2.13;1.35;;;;;;;20.99;83.18;101333.91;4957699;28;20267;-75
2021/08/25 10:41:19;;;;;;;3.17;1.27;;;;;;;21.30;84.55;101336.19;4943072;28;20253;-74
2021/08/25 10:43:49;;;;;;;2.15;1.33;;;;;;;21.48;81.97;101328.72;4988643;28;20194;-72
2021/08/25 10:46:17;;;;;;;3.42;1.30;;;;;;;21.49;77.56;101322.84;4990602;28;20228;-73
2021/08/25 10:48:57;;;;;;;2.67;1.40;;;;;;;20.99;80.47;101317.34;4989008;28;20189;-74
2021/08/25 10:51:33;;;;;;;2.90;1.25;;;;;;;20.55;80.94;101305.72;4975997;28;20224;-73
2021/08/25 10:53:59;;;;;;;1.63;1.17;;;;;;;20.58;79.36;101292.06;4992503;28;20185;-74
2021/08/25 10:56:29;;;;;;;3.70;1.40;;;;;;;20.38;85.45;101288.28;4995953;28;20217;-72
2021/08/25 10:59:02;;;;;;;2.05;1.30;;;;;;;21.06;82.55;101284.47;4993353;28;20217;-71
2021/08/25 11:01:30;;;;;;;2.30;1.30;;;;;;;21.23;78.91;101277.00;4989840;28;20217;-72
2021/08/25 11:04:03;;;;;;;2.67;1.30;;;;;;;21.63;78.67;101270.94;5003807;28;20181;-77
2021/08/25 11:06:41;;;;;;;3.90;1.83;;;;;;;21.72;76.93;101260.63;4974392;28;20218;-73
2021/08/25 11:09:17;;;;;;;3.28;1.30;;;;;;;21.71;75.12;101264.56;4989604;28;20560;-78
2021/08/25 11:12:07;;;;;;;2.35;1.35;;;;;;;21.63;75.94;101262.63;4962258;28;20221;-76
2021/08/25 11:14:46;;;;;;;2.97;1.00;;;;;;;21.62;78.89;101261.00;4989951;28;20276;-74
2021/08/25 11:17:30;;;;;;;1.17;1.00;;;;;;;21.71;72.16;101247.97;4978948;28;20221;-75
2021/08/25 11:19:59;;;;;;;2.55;1.20;;;;;;;21.81;70.18;101247.56;4996828;28;20199;-78
2021/08/25 11:22:31;;;;;;;3.25;1.05;;;;;;;21.85;69.17;101248.53;4977182;28;20217;-76
2021/08/25 11:25:10;;;;;;;1.30;1.20;;;;;;;22.11;69.51;101236.22;4971418;28;20317;-75